createdAt,value
2017-11-04T00:00:29.009Z,0
2017-11-04T00:01:41.611Z,0
2017-11-04T00:02:53.897Z,0
2017-11-04T00:04:06.165Z,0
2017-11-04T00:05:18.767Z,0
2017-11-04T00:06:31.059Z,0
2017-11-04T00:07:43.676Z,0
2017-11-04T00:08:56.276Z,0
2017-11-04T00:10:08.217Z,0
2017-11-04T00:11:20.492Z,0
2017-11-04T00:12:32.766Z,0
2017-11-04T00:13:45.034Z,0
2017-11-04T00:14:57.295Z,0
2017-11-04T00:16:09.576Z,0
2017-11-04T00:17:21.869Z,0
2017-11-04T00:18:34.145Z,0
2017-11-04T00:19:46.761Z,0
2017-11-04T00:20:59.385Z,0
2017-11-04T00:22:12.006Z,0
2017-11-04T00:23:24.604Z,0
2017-11-04T00:24:37.218Z,0
2017-11-04T00:25:49.819Z,0
2017-11-04T00:27:02.103Z,0
2017-11-04T00:28:14.363Z,0
2017-11-04T00:29:26.672Z,0
2017-11-04T00:30:39.297Z,0
2017-11-04T00:31:51.568Z,0
2017-11-04T00:33:03.867Z,0
2017-11-04T00:34:16.505Z,0
2017-11-04T00:35:28.474Z,0
2017-11-04T00:36:40.426Z,0
2017-11-04T00:37:53.022Z,0
2017-11-04T00:39:05.634Z,0
2017-11-04T00:40:17.913Z,0
2017-11-04T00:41:30.542Z,0
2017-11-04T00:42:43.157Z,0
2017-11-04T00:43:55.416Z,0
2017-11-04T00:45:07.724Z,0
2017-11-04T00:46:19.693Z,0
2017-11-04T00:47:31.686Z,0
2017-11-04T00:48:44.310Z,0
2017-11-04T00:49:56.927Z,0
2017-11-04T00:51:09.557Z,0
2017-11-04T00:52:22.219Z,0
2017-11-04T00:53:34.193Z,0
2017-11-04T00:54:46.822Z,0
2017-11-04T00:55:59.098Z,0
2017-11-04T00:57:11.405Z,0
2017-11-04T00:58:23.642Z,0
2017-11-04T00:59:35.970Z,0
2017-11-04T01:00:48.588Z,0
2017-11-04T01:02:00.587Z,0
2017-11-04T01:03:13.179Z,0
2017-11-04T01:04:25.477Z,0
2017-11-04T01:05:38.069Z,0
2017-11-04T01:06:50.666Z,0
2017-11-04T01:08:03.301Z,0
2017-11-04T01:09:15.904Z,0
2017-11-04T01:10:28.519Z,0
2017-11-04T01:11:41.106Z,0
2017-11-04T01:12:53.746Z,0
2017-11-04T01:14:06.024Z,0
2017-11-04T01:15:18.617Z,0
2017-11-04T01:16:31.251Z,0
2017-11-04T01:17:43.552Z,0
2017-11-04T01:18:55.842Z,0
2017-11-04T01:20:08.442Z,0
2017-11-04T01:21:21.031Z,0
2017-11-04T01:22:33.658Z,0
2017-11-04T01:23:45.930Z,0
2017-11-04T01:24:58.542Z,0
2017-11-04T01:26:11.120Z,0
2017-11-04T01:27:23.427Z,0
2017-11-04T01:28:35.737Z,0
2017-11-04T01:29:48.007Z,0
2017-11-04T01:31:00.925Z,0
2017-11-04T01:32:13.199Z,0
2017-11-04T01:33:25.146Z,0
2017-11-04T01:34:37.744Z,0
2017-11-04T01:35:50.358Z,0
2017-11-04T01:37:02.976Z,0
2017-11-04T01:38:15.256Z,0
2017-11-04T01:39:27.225Z,0
2017-11-04T01:40:39.201Z,0
2017-11-04T01:41:51.459Z,0
2017-11-04T01:43:04.041Z,0
2017-11-04T01:44:16.010Z,0
2017-11-04T01:45:28.631Z,0
2017-11-04T01:46:40.925Z,0
2017-11-04T01:47:52.895Z,0
2017-11-04T01:49:05.164Z,0
2017-11-04T01:50:17.133Z,0
2017-11-04T01:51:29.722Z,0
2017-11-04T01:52:41.675Z,0
2017-11-04T01:53:53.945Z,0
2017-11-04T01:55:06.249Z,0
2017-11-04T01:56:18.895Z,0
2017-11-04T01:57:31.501Z,0
2017-11-04T01:58:44.105Z,0
2017-11-04T01:59:56.383Z,0
2017-11-04T02:01:08.649Z,0
2017-11-04T02:02:21.265Z,0
2017-11-04T02:03:33.865Z,0
2017-11-04T02:04:46.156Z,0
2017-11-04T02:05:58.758Z,0
2017-11-04T02:07:11.377Z,0
2017-11-04T02:08:23.645Z,0
2017-11-04T02:09:35.918Z,0
2017-11-04T02:10:48.553Z,0
2017-11-04T02:12:00.834Z,0
2017-11-04T02:13:13.128Z,0
2017-11-04T02:14:25.705Z,0
2017-11-04T02:15:37.996Z,0
2017-11-04T02:16:50.292Z,0
2017-11-04T02:18:02.559Z,0
2017-11-04T02:19:14.854Z,0
2017-11-04T02:20:27.443Z,0
2017-11-04T02:21:39.713Z,0
2017-11-04T02:22:52.309Z,0
2017-11-04T02:24:04.604Z,0
2017-11-04T02:25:16.562Z,0
2017-11-04T02:26:28.833Z,0
2017-11-04T02:27:40.805Z,0
2017-11-04T02:28:53.423Z,0
2017-11-04T02:30:05.373Z,0
2017-11-04T02:31:17.310Z,0
2017-11-04T02:32:28.950Z,0
2017-11-04T02:33:41.203Z,0
2017-11-04T02:34:53.801Z,0
2017-11-04T02:36:06.671Z,0
2017-11-04T02:37:18.964Z,0
2017-11-04T02:38:31.263Z,0
2017-11-04T02:39:43.886Z,0
2017-11-04T02:40:56.180Z,0
2017-11-04T02:42:08.825Z,0
2017-11-04T02:43:21.114Z,0
2017-11-04T02:44:33.381Z,0
2017-11-04T02:45:45.993Z,0
2017-11-04T02:46:58.584Z,0
2017-11-04T02:48:10.879Z,0
2017-11-04T02:49:23.488Z,0
2017-11-04T02:50:36.096Z,0
2017-11-04T02:51:48.062Z,0
2017-11-04T02:53:00.049Z,0
2017-11-04T02:54:12.331Z,0
2017-11-04T02:55:24.967Z,0
2017-11-04T02:56:37.246Z,0
2017-11-04T02:57:49.770Z,0
2017-11-04T02:59:02.390Z,0
2017-11-04T03:00:14.686Z,0
2017-11-04T03:01:27.299Z,0
2017-11-04T03:02:39.926Z,0
2017-11-04T03:03:52.520Z,0
2017-11-04T03:05:04.816Z,0
2017-11-04T03:06:17.132Z,0
2017-11-04T03:07:29.398Z,0
2017-11-04T03:08:41.652Z,0
2017-11-04T03:09:53.951Z,0
2017-11-04T03:11:06.246Z,0
2017-11-04T03:12:18.864Z,0
2017-11-04T03:13:31.489Z,0
2017-11-04T03:14:44.107Z,0
2017-11-04T03:15:56.730Z,0
2017-11-04T03:17:08.699Z,0
2017-11-04T03:18:20.984Z,0
2017-11-04T03:19:33.265Z,0
2017-11-04T03:20:45.582Z,0
2017-11-04T03:21:57.895Z,0
2017-11-04T03:23:09.878Z,0
2017-11-04T03:24:22.149Z,0
2017-11-04T03:25:34.447Z,0
2017-11-04T03:26:47.041Z,0
2017-11-04T03:27:59.680Z,0
2017-11-04T03:29:12.270Z,0
2017-11-04T03:30:24.856Z,0
2017-11-04T03:31:37.179Z,0
2017-11-04T03:32:49.442Z,0
2017-11-04T03:34:02.031Z,0
2017-11-04T03:35:13.659Z,0
2017-11-04T03:36:26.280Z,0
2017-11-04T03:37:38.582Z,0
2017-11-04T03:38:51.160Z,0
2017-11-04T03:40:03.740Z,0
2017-11-04T03:41:16.027Z,0
2017-11-04T03:42:28.332Z,0
2017-11-04T03:43:40.617Z,0
2017-11-04T03:44:53.237Z,0
2017-11-04T03:46:05.837Z,0
2017-11-04T03:47:18.441Z,0
2017-11-04T03:48:30.728Z,0
2017-11-04T03:49:43.329Z,0
2017-11-04T03:50:55.944Z,0
2017-11-04T03:52:08.801Z,0
2017-11-04T03:53:21.386Z,0
2017-11-04T03:54:33.659Z,0
2017-11-04T03:55:46.248Z,0
2017-11-04T03:56:58.834Z,0
2017-11-04T03:58:11.453Z,0
2017-11-04T03:59:24.092Z,0
2017-11-04T04:00:36.068Z,0
2017-11-04T04:01:48.680Z,0
2017-11-04T04:03:01.234Z,0
2017-11-04T04:04:13.526Z,0
2017-11-04T04:05:26.149Z,0
2017-11-04T04:06:38.742Z,0
2017-11-04T04:07:51.366Z,0
2017-11-04T04:09:03.978Z,0
2017-11-04T04:10:16.594Z,0
2017-11-04T04:11:29.208Z,0
2017-11-04T04:12:41.476Z,0
2017-11-04T04:13:54.083Z,0
2017-11-04T04:15:06.379Z,0
2017-11-04T04:16:18.664Z,0
2017-11-04T04:17:30.953Z,0
2017-11-04T04:18:43.575Z,0
2017-11-04T04:19:55.894Z,0
2017-11-04T04:21:08.185Z,0
2017-11-04T04:22:20.785Z,0
2017-11-04T04:23:33.058Z,0
2017-11-04T04:24:45.031Z,0
2017-11-04T04:25:57.306Z,0
2017-11-04T04:27:09.601Z,0
2017-11-04T04:28:21.566Z,0
2017-11-04T04:29:33.838Z,0
2017-11-04T04:30:46.112Z,0
2017-11-04T04:31:58.704Z,0
2017-11-04T04:33:11.296Z,0
2017-11-04T04:34:23.895Z,0
2017-11-04T04:35:36.759Z,0
2017-11-04T04:36:49.386Z,0
2017-11-04T04:38:01.997Z,0
2017-11-04T04:39:14.280Z,0
2017-11-04T04:40:26.869Z,0
2017-11-04T04:41:38.843Z,0
2017-11-04T04:42:51.437Z,0
2017-11-04T04:44:04.084Z,0
2017-11-04T04:45:16.348Z,0
2017-11-04T04:46:28.956Z,0
2017-11-04T04:47:41.561Z,0
2017-11-04T04:48:53.840Z,0
2017-11-04T04:50:06.427Z,0
2017-11-04T04:51:19.031Z,0
2017-11-04T04:52:31.297Z,0
2017-11-04T04:53:43.921Z,0
2017-11-04T04:54:56.192Z,0
2017-11-04T04:56:08.484Z,0
2017-11-04T04:57:21.100Z,0
2017-11-04T04:58:33.658Z,0
2017-11-04T04:59:45.928Z,0
2017-11-04T05:00:57.582Z,0
2017-11-04T05:02:09.844Z,0
2017-11-04T05:03:22.441Z,0
2017-11-04T05:04:34.736Z,0
2017-11-04T05:05:46.721Z,0
2017-11-04T05:06:59.329Z,0
2017-11-04T05:08:11.869Z,0
2017-11-04T05:09:24.494Z,0
2017-11-04T05:10:36.792Z,0
2017-11-04T05:11:49.388Z,0
2017-11-04T05:13:01.344Z,0
2017-11-04T05:14:13.598Z,0
2017-11-04T05:15:25.896Z,0
2017-11-04T05:16:38.509Z,0
2017-11-04T05:17:50.786Z,0
2017-11-04T05:19:02.729Z,0
2017-11-04T05:20:15.352Z,0
2017-11-04T05:21:27.650Z,0
2017-11-04T05:22:40.266Z,0
2017-11-04T05:23:52.855Z,0
2017-11-04T05:25:05.133Z,0
2017-11-04T05:26:17.733Z,0
2017-11-04T05:27:30.350Z,0
2017-11-04T05:28:42.951Z,0
2017-11-04T05:29:55.545Z,0
2017-11-04T05:31:07.837Z,0
2017-11-04T05:32:20.461Z,0
2017-11-04T05:33:32.781Z,0
2017-11-04T05:34:45.395Z,0
2017-11-04T05:35:57.698Z,0
2017-11-04T05:37:10.307Z,0
2017-11-04T05:38:22.870Z,0
2017-11-04T05:39:35.160Z,0
2017-11-04T05:40:47.806Z,0
2017-11-04T05:42:00.399Z,0
2017-11-04T05:43:12.684Z,0
2017-11-04T05:44:25.289Z,0
2017-11-04T05:45:37.585Z,0
2017-11-04T05:46:50.204Z,0
2017-11-04T05:48:02.521Z,0
2017-11-04T05:49:15.148Z,0
2017-11-04T05:50:27.125Z,0
2017-11-04T05:51:39.420Z,0
2017-11-04T05:52:51.991Z,0
2017-11-04T05:54:03.955Z,0
2017-11-04T05:55:15.902Z,0
2017-11-04T05:56:28.550Z,0
2017-11-04T05:57:41.166Z,0
2017-11-04T05:58:53.458Z,0
2017-11-04T06:00:05.737Z,0
2017-11-04T06:01:17.705Z,5
2017-11-04T06:02:29.602Z,5
2017-11-04T06:03:42.191Z,5
2017-11-04T06:04:54.468Z,5
2017-11-04T06:06:06.753Z,5
2017-11-04T06:07:19.031Z,5
2017-11-04T06:08:30.983Z,5
2017-11-04T06:09:43.622Z,5
2017-11-04T06:10:56.238Z,10
2017-11-04T06:12:08.218Z,10
2017-11-04T06:13:20.187Z,10
2017-11-04T06:14:32.507Z,10
2017-11-04T06:15:44.801Z,10
2017-11-04T06:16:57.100Z,15
2017-11-04T06:18:09.691Z,15
2017-11-04T06:19:22.315Z,15
2017-11-04T06:20:34.603Z,20
2017-11-04T06:21:47.246Z,20
2017-11-04T06:22:59.842Z,20
2017-11-04T06:24:12.066Z,25
2017-11-04T06:25:24.657Z,25
2017-11-04T06:26:36.939Z,30
2017-11-04T06:27:49.234Z,30
2017-11-04T06:29:01.846Z,35
2017-11-04T06:30:14.133Z,35
2017-11-04T06:31:26.422Z,35
2017-11-04T06:32:39.035Z,40
2017-11-04T06:33:51.670Z,40
2017-11-04T06:35:03.951Z,40
2017-11-04T06:36:15.932Z,45
2017-11-04T06:37:28.225Z,45
2017-11-04T06:38:40.494Z,50
2017-11-04T06:39:52.767Z,50
2017-11-04T06:41:05.384Z,50
2017-11-04T06:42:17.660Z,50
2017-11-04T06:43:30.279Z,50
2017-11-04T06:44:41.951Z,55
2017-11-04T06:45:54.245Z,55
2017-11-04T06:47:06.866Z,55
2017-11-04T06:48:19.132Z,60
2017-11-04T06:49:31.406Z,60
2017-11-04T06:50:43.691Z,65
2017-11-04T06:51:56.037Z,70
2017-11-04T06:53:08.289Z,70
2017-11-04T06:54:20.262Z,75
2017-11-04T06:55:32.857Z,75
2017-11-04T06:56:45.454Z,80
2017-11-04T06:57:58.095Z,80
2017-11-04T06:59:10.696Z,80
2017-11-04T07:00:22.985Z,80
2017-11-04T07:01:35.582Z,75
2017-11-04T07:02:48.211Z,75
2017-11-04T07:04:00.527Z,80
2017-11-04T07:05:13.142Z,80
2017-11-04T07:06:25.746Z,80
2017-11-04T07:07:37.964Z,80
2017-11-04T07:08:50.587Z,80
2017-11-04T07:10:03.182Z,80
2017-11-04T07:11:15.445Z,75
2017-11-04T07:12:27.720Z,75
2017-11-04T07:13:40.019Z,75
2017-11-04T07:14:52.641Z,80
2017-11-04T07:16:05.250Z,80
2017-11-04T07:17:17.835Z,85
2017-11-04T07:18:30.398Z,90
2017-11-04T07:19:43.015Z,95
2017-11-04T07:20:55.643Z,100
2017-11-04T07:22:07.924Z,100
2017-11-04T07:23:20.223Z,105
2017-11-04T07:24:32.499Z,105
2017-11-04T07:25:44.825Z,110
2017-11-04T07:26:57.422Z,115
2017-11-04T07:28:09.736Z,115
2017-11-04T07:29:21.705Z,120
2017-11-04T07:30:34.005Z,120
2017-11-04T07:31:46.303Z,120
2017-11-04T07:32:58.898Z,125
2017-11-04T07:34:11.196Z,125
2017-11-04T07:35:23.468Z,130
2017-11-04T07:36:35.431Z,135
2017-11-04T07:37:48.082Z,140
2017-11-04T07:39:00.375Z,150
2017-11-04T07:40:12.975Z,155
2017-11-04T07:41:25.582Z,160
2017-11-04T07:42:38.161Z,165
2017-11-04T07:43:50.766Z,170
2017-11-04T07:45:03.031Z,170
2017-11-04T07:46:14.675Z,170
2017-11-04T07:47:26.988Z,170
2017-11-04T07:48:39.249Z,175
2017-11-04T07:49:51.536Z,175
2017-11-04T07:51:04.075Z,175
2017-11-04T07:52:15.683Z,175
2017-11-04T07:53:28.301Z,185
2017-11-04T07:54:39.939Z,190
2017-11-04T07:55:52.235Z,200
2017-11-04T07:57:04.839Z,200
2017-11-04T07:58:17.134Z,200
2017-11-04T07:59:29.431Z,195
2017-11-04T08:00:42.048Z,195
2017-11-04T08:01:54.964Z,200
2017-11-04T08:03:06.962Z,190
2017-11-04T08:04:19.595Z,185
2017-11-04T08:05:32.208Z,185
2017-11-04T08:06:44.480Z,185
2017-11-04T08:07:56.774Z,185
2017-11-04T08:09:09.066Z,185
2017-11-04T08:10:21.380Z,185
2017-11-04T08:11:33.983Z,180
2017-11-04T08:12:46.582Z,180
2017-11-04T08:13:59.179Z,190
2017-11-04T08:15:10.819Z,195
2017-11-04T08:16:22.794Z,210
2017-11-04T08:17:34.790Z,225
2017-11-04T08:18:47.065Z,235
2017-11-04T08:19:59.682Z,245
2017-11-04T08:21:12.292Z,255
2017-11-04T08:22:24.889Z,255
2017-11-04T08:23:37.174Z,260
2017-11-04T08:24:49.792Z,265
2017-11-04T08:26:02.430Z,270
2017-11-04T08:27:15.025Z,280
2017-11-04T08:28:27.302Z,285
2017-11-04T08:29:39.594Z,285
2017-11-04T08:30:52.205Z,285
2017-11-04T08:32:04.503Z,285
2017-11-04T08:33:16.449Z,285
2017-11-04T08:34:28.742Z,280
2017-11-04T08:35:41.352Z,270
2017-11-04T08:36:53.940Z,260
2017-11-04T08:38:05.904Z,255
2017-11-04T08:39:18.431Z,250
2017-11-04T08:40:31.031Z,240
2017-11-04T08:41:43.327Z,230
2017-11-04T08:42:55.297Z,225
2017-11-04T08:44:07.943Z,225
2017-11-04T08:45:20.557Z,220
2017-11-04T08:46:32.858Z,225
2017-11-04T08:47:45.131Z,225
2017-11-04T08:48:57.451Z,220
2017-11-04T08:50:10.088Z,220
2017-11-04T08:51:22.717Z,220
2017-11-04T08:52:35.027Z,225
2017-11-04T08:53:47.589Z,210
2017-11-04T08:54:59.854Z,205
2017-11-04T08:56:12.445Z,205
2017-11-04T08:57:25.069Z,205
2017-11-04T08:58:37.039Z,205
2017-11-04T08:59:49.663Z,210
2017-11-04T09:01:02.533Z,215
2017-11-04T09:02:14.825Z,220
2017-11-04T09:03:27.440Z,220
2017-11-04T09:04:39.712Z,225
2017-11-04T09:05:52.299Z,240
2017-11-04T09:07:04.907Z,255
2017-11-04T09:08:17.233Z,265
2017-11-04T09:09:29.878Z,270
2017-11-04T09:10:42.471Z,280
2017-11-04T09:11:54.735Z,285
2017-11-04T09:13:07.363Z,290
2017-11-04T09:14:19.969Z,300
2017-11-04T09:15:32.569Z,310
2017-11-04T09:16:44.547Z,320
2017-11-04T09:17:57.134Z,335
2017-11-04T09:19:09.421Z,340
2017-11-04T09:20:21.731Z,355
2017-11-04T09:21:33.983Z,355
2017-11-04T09:22:46.628Z,355
2017-11-04T09:23:58.930Z,350
2017-11-04T09:25:10.895Z,345
2017-11-04T09:26:22.529Z,335
2017-11-04T09:27:35.145Z,330
2017-11-04T09:28:47.454Z,325
2017-11-04T09:30:00.075Z,325
2017-11-04T09:31:12.699Z,320
2017-11-04T09:32:25.332Z,320
2017-11-04T09:33:37.636Z,320
2017-11-04T09:34:50.237Z,320
2017-11-04T09:36:02.855Z,315
2017-11-04T09:37:15.165Z,320
2017-11-04T09:38:27.772Z,320
2017-11-04T09:39:40.690Z,325
2017-11-04T09:40:53.277Z,335
2017-11-04T09:42:05.881Z,330
2017-11-04T09:43:18.180Z,340
2017-11-04T09:44:30.723Z,350
2017-11-04T09:45:43.317Z,345
2017-11-04T09:46:55.941Z,345
2017-11-04T09:48:08.229Z,335
2017-11-04T09:49:20.833Z,320
2017-11-04T09:50:33.432Z,305
2017-11-04T09:51:46.024Z,300
2017-11-04T09:52:58.620Z,280
2017-11-04T09:54:10.911Z,270
2017-11-04T09:55:22.883Z,270
2017-11-04T09:56:35.157Z,270
2017-11-04T09:57:47.120Z,275
2017-11-04T09:58:59.399Z,270
2017-11-04T10:00:12.047Z,265
2017-11-04T10:01:24.678Z,265
2017-11-04T10:02:37.287Z,255
2017-11-04T10:03:49.906Z,255
2017-11-04T10:05:02.547Z,265
2017-11-04T10:06:14.859Z,270
2017-11-04T10:07:27.446Z,275
2017-11-04T10:08:39.742Z,285
2017-11-04T10:09:52.030Z,295
2017-11-04T10:11:04.317Z,285
2017-11-04T10:12:16.274Z,295
2017-11-04T10:13:28.884Z,295
2017-11-04T10:14:41.490Z,305
2017-11-04T10:15:54.087Z,315
2017-11-04T10:17:06.707Z,315
2017-11-04T10:18:19.331Z,310
2017-11-04T10:19:31.964Z,310
2017-11-04T10:20:44.575Z,305
2017-11-04T10:21:57.207Z,310
2017-11-04T10:23:09.831Z,295
2017-11-04T10:24:22.432Z,285
2017-11-04T10:25:34.402Z,285
2017-11-04T10:26:47.025Z,280
2017-11-04T10:27:59.313Z,275
2017-11-04T10:29:11.284Z,285
2017-11-04T10:30:23.906Z,295
2017-11-04T10:31:35.868Z,300
2017-11-04T10:32:47.860Z,320
2017-11-04T10:34:00.467Z,345
2017-11-04T10:35:12.784Z,365
2017-11-04T10:36:25.427Z,385
2017-11-04T10:37:37.729Z,380
2017-11-04T10:38:50.328Z,370
2017-11-04T10:40:02.300Z,360
2017-11-04T10:41:14.938Z,360
2017-11-04T10:42:27.231Z,365
2017-11-04T10:43:38.880Z,365
2017-11-04T10:44:51.148Z,365
2017-11-04T10:46:03.744Z,370
2017-11-04T10:47:15.716Z,360
2017-11-04T10:48:28.019Z,340
2017-11-04T10:49:40.339Z,325
2017-11-04T10:50:52.653Z,310
2017-11-04T10:52:05.248Z,305
2017-11-04T10:53:17.874Z,290
2017-11-04T10:54:30.490Z,285
2017-11-04T10:55:43.114Z,280
2017-11-04T10:56:55.727Z,285
2017-11-04T10:58:08.381Z,280
2017-11-04T10:59:21.030Z,285
2017-11-04T11:00:33.346Z,285
2017-11-04T11:01:45.621Z,290
2017-11-04T11:02:57.937Z,300
2017-11-04T11:04:09.912Z,300
2017-11-04T11:05:21.883Z,300
2017-11-04T11:06:34.218Z,310
2017-11-04T11:07:46.521Z,315
2017-11-04T11:08:58.791Z,320
2017-11-04T11:10:11.420Z,325
2017-11-04T11:11:23.716Z,325
2017-11-04T11:12:36.328Z,325
2017-11-04T11:13:48.952Z,330
2017-11-04T11:15:00.944Z,330
2017-11-04T11:16:13.548Z,340
2017-11-04T11:17:25.532Z,350
2017-11-04T11:18:38.153Z,350
2017-11-04T11:19:50.773Z,350
2017-11-04T11:21:03.399Z,340
2017-11-04T11:22:16.043Z,325
2017-11-04T11:23:28.367Z,305
2017-11-04T11:24:40.662Z,305
2017-11-04T11:25:53.258Z,305
2017-11-04T11:27:05.857Z,290
2017-11-04T11:28:17.826Z,285
2017-11-04T11:29:30.496Z,280
2017-11-04T11:30:43.093Z,280
2017-11-04T11:31:55.366Z,275
2017-11-04T11:33:07.958Z,275
2017-11-04T11:34:20.550Z,270
2017-11-04T11:35:32.845Z,270
2017-11-04T11:36:45.145Z,280
2017-11-04T11:37:57.758Z,275
2017-11-04T11:39:10.654Z,280
2017-11-04T11:40:23.249Z,280
2017-11-04T11:41:35.549Z,285
2017-11-04T11:42:48.166Z,285
2017-11-04T11:44:00.765Z,290
2017-11-04T11:45:13.368Z,285
2017-11-04T11:46:25.981Z,285
2017-11-04T11:47:38.602Z,285
2017-11-04T11:48:51.274Z,285
2017-11-04T11:50:03.588Z,290
2017-11-04T11:51:16.217Z,290
2017-11-04T11:52:28.511Z,300
2017-11-04T11:53:40.805Z,300
2017-11-04T11:54:53.426Z,305
2017-11-04T11:56:06.072Z,305
2017-11-04T11:57:18.738Z,305
2017-11-04T11:58:31.330Z,310
2017-11-04T11:59:43.953Z,310
2017-11-04T12:00:56.478Z,310
2017-11-04T12:02:08.777Z,310
2017-11-04T12:03:20.772Z,305
2017-11-04T12:04:33.067Z,310
2017-11-04T12:05:45.361Z,310
2017-11-04T12:06:57.340Z,325
2017-11-04T12:08:09.953Z,330
2017-11-04T12:09:22.248Z,330
2017-11-04T12:10:34.846Z,330
2017-11-04T12:11:47.461Z,340
2017-11-04T12:12:59.434Z,345
2017-11-04T12:14:12.051Z,340
2017-11-04T12:15:24.036Z,340
2017-11-04T12:16:36.317Z,340
2017-11-04T12:17:48.613Z,330
2017-11-04T12:19:01.231Z,330
2017-11-04T12:20:13.184Z,310
2017-11-04T12:21:25.780Z,295
2017-11-04T12:22:38.072Z,295
2017-11-04T12:23:50.370Z,295
2017-11-04T12:25:02.647Z,280
2017-11-04T12:26:14.590Z,275
2017-11-04T12:27:26.884Z,265
2017-11-04T12:28:38.854Z,260
2017-11-04T12:29:51.478Z,260
2017-11-04T12:31:03.772Z,255
2017-11-04T12:32:16.072Z,250
2017-11-04T12:33:28.695Z,240
2017-11-04T12:34:41.339Z,225
2017-11-04T12:35:53.630Z,225
2017-11-04T12:37:05.945Z,235
2017-11-04T12:38:18.560Z,235
2017-11-04T12:39:31.162Z,235
2017-11-04T12:40:43.812Z,230
2017-11-04T12:41:56.435Z,235
2017-11-04T12:43:09.080Z,230
2017-11-04T12:44:21.743Z,235
2017-11-04T12:45:34.371Z,235
2017-11-04T12:46:46.388Z,230
2017-11-04T12:47:58.665Z,225
2017-11-04T12:49:10.631Z,220
2017-11-04T12:50:23.243Z,225
2017-11-04T12:51:35.842Z,220
2017-11-04T12:52:48.470Z,220
2017-11-04T12:54:01.066Z,220
2017-11-04T12:55:13.356Z,225
2017-11-04T12:56:25.349Z,230
2017-11-04T12:57:37.953Z,230
2017-11-04T12:58:50.248Z,230
2017-11-04T13:00:02.215Z,230
2017-11-04T13:01:14.817Z,230
2017-11-04T13:02:27.124Z,235
2017-11-04T13:03:39.719Z,235
2017-11-04T13:04:51.679Z,225
2017-11-04T13:06:03.944Z,215
2017-11-04T13:07:16.539Z,225
2017-11-04T13:08:29.158Z,260
2017-11-04T13:09:41.129Z,280
2017-11-04T13:10:53.718Z,265
2017-11-04T13:12:05.971Z,245
2017-11-04T13:13:18.268Z,235
2017-11-04T13:14:30.896Z,240
2017-11-04T13:15:43.492Z,245
2017-11-04T13:16:56.124Z,250
2017-11-04T13:18:08.745Z,255
2017-11-04T13:19:21.372Z,255
2017-11-04T13:20:33.658Z,260
2017-11-04T13:21:46.533Z,250
2017-11-04T13:22:59.160Z,225
2017-11-04T13:24:10.499Z,205
2017-11-04T13:25:22.466Z,210
2017-11-04T13:26:34.740Z,215
2017-11-04T13:27:47.043Z,200
2017-11-04T13:28:59.356Z,195
2017-11-04T13:30:11.653Z,190
2017-11-04T13:31:24.330Z,180
2017-11-04T13:32:36.622Z,180
2017-11-04T13:33:48.919Z,180
2017-11-04T13:35:01.215Z,185
2017-11-04T13:36:13.140Z,195
2017-11-04T13:37:25.747Z,200
2017-11-04T13:38:38.002Z,205
2017-11-04T13:39:50.294Z,210
2017-11-04T13:41:02.592Z,205
2017-11-04T13:42:14.871Z,200
2017-11-04T13:43:27.529Z,185
2017-11-04T13:44:40.175Z,180
2017-11-04T13:45:52.796Z,180
2017-11-04T13:47:05.120Z,185
2017-11-04T13:48:17.743Z,180
2017-11-04T13:49:30.055Z,175
2017-11-04T13:50:42.661Z,165
2017-11-04T13:51:55.253Z,160
2017-11-04T13:53:07.876Z,160
2017-11-04T13:54:20.514Z,155
2017-11-04T13:55:33.143Z,150
2017-11-04T13:56:45.464Z,155
2017-11-04T13:57:57.423Z,155
2017-11-04T13:59:09.702Z,155
2017-11-04T14:00:21.924Z,155
2017-11-04T14:01:34.619Z,150
2017-11-04T14:02:47.213Z,155
2017-11-04T14:03:59.177Z,170
2017-11-04T14:05:11.784Z,180
2017-11-04T14:06:23.753Z,180
2017-11-04T14:07:36.050Z,170
2017-11-04T14:08:48.337Z,150
2017-11-04T14:10:00.962Z,140
2017-11-04T14:11:13.254Z,130
2017-11-04T14:12:25.880Z,125
2017-11-04T14:13:38.467Z,125
2017-11-04T14:14:51.079Z,125
2017-11-04T14:16:03.683Z,130
2017-11-04T14:17:16.264Z,130
2017-11-04T14:18:28.556Z,130
2017-11-04T14:19:40.856Z,135
2017-11-04T14:20:53.149Z,135
2017-11-04T14:22:05.378Z,130
2017-11-04T14:23:17.344Z,125
2017-11-04T14:24:29.956Z,120
2017-11-04T14:25:42.231Z,120
2017-11-04T14:26:54.832Z,120
2017-11-04T14:28:07.119Z,120
2017-11-04T14:29:19.092Z,120
2017-11-04T14:30:31.391Z,115
2017-11-04T14:31:43.692Z,115
2017-11-04T14:32:55.651Z,110
2017-11-04T14:34:07.658Z,100
2017-11-04T14:35:19.320Z,90
2017-11-04T14:36:31.612Z,85
2017-11-04T14:37:44.237Z,75
2017-11-04T14:38:56.859Z,70
2017-11-04T14:40:09.496Z,65
2017-11-04T14:41:21.800Z,60
2017-11-04T14:42:34.080Z,55
2017-11-04T14:43:46.387Z,55
2017-11-04T14:44:58.363Z,55
2017-11-04T14:46:10.658Z,55
2017-11-04T14:47:23.270Z,50
2017-11-04T14:48:35.869Z,50
2017-11-04T14:49:48.201Z,45
2017-11-04T14:51:00.514Z,45
2017-11-04T14:52:13.135Z,45
2017-11-04T14:53:25.413Z,45
2017-11-04T14:54:38.032Z,45
2017-11-04T14:55:50.025Z,45
2017-11-04T14:57:02.642Z,45
2017-11-04T14:58:14.942Z,40
2017-11-04T14:59:27.240Z,40
2017-11-04T15:00:39.859Z,40
2017-11-04T15:01:52.486Z,40
2017-11-04T15:03:04.767Z,35
2017-11-04T15:04:17.408Z,35
2017-11-04T15:05:30.022Z,35
2017-11-04T15:06:42.314Z,30
2017-11-04T15:07:54.272Z,30
2017-11-04T15:09:06.856Z,30
2017-11-04T15:10:19.470Z,25
2017-11-04T15:11:32.074Z,25
2017-11-04T15:12:44.369Z,25
2017-11-04T15:13:56.649Z,20
2017-11-04T15:15:08.948Z,20
2017-11-04T15:16:21.599Z,20
2017-11-04T15:17:33.594Z,20
2017-11-04T15:18:45.882Z,15
2017-11-04T15:19:57.861Z,15
2017-11-04T15:21:09.831Z,15
2017-11-04T15:22:22.447Z,15
2017-11-04T15:23:35.047Z,10
2017-11-04T15:24:47.342Z,10
2017-11-04T15:25:58.980Z,10
2017-11-04T15:27:11.287Z,10
2017-11-04T15:28:23.556Z,10
2017-11-04T15:29:35.873Z,5
2017-11-04T15:30:48.145Z,5
2017-11-04T15:32:00.772Z,5
2017-11-04T15:33:13.066Z,5
2017-11-04T15:34:25.674Z,5
2017-11-04T15:35:37.954Z,5
2017-11-04T15:36:49.923Z,5
2017-11-04T15:38:02.197Z,5
2017-11-04T15:39:14.815Z,0
2017-11-04T15:40:27.088Z,0
2017-11-04T15:41:39.711Z,0
2017-11-04T15:42:52.003Z,0
2017-11-04T15:44:03.984Z,0
2017-11-04T15:45:16.270Z,0
2017-11-04T15:46:28.934Z,0
2017-11-04T15:47:40.917Z,0
2017-11-04T15:48:53.807Z,0
2017-11-04T15:50:06.097Z,0
2017-11-04T15:51:18.356Z,0
2017-11-04T15:52:30.959Z,0
2017-11-04T15:53:43.241Z,0
2017-11-04T15:54:55.838Z,0
2017-11-04T15:56:08.129Z,0
2017-11-04T15:57:20.422Z,0
2017-11-04T15:58:32.722Z,0
2017-11-04T15:59:45.316Z,0
2017-11-04T16:00:57.608Z,0
2017-11-04T16:02:10.237Z,0
2017-11-04T16:03:22.527Z,0
2017-11-04T16:04:34.526Z,0
2017-11-04T16:05:46.847Z,0
2017-11-04T16:06:59.136Z,0
2017-11-04T16:08:11.787Z,0
2017-11-04T16:09:24.084Z,0
2017-11-04T16:10:36.048Z,0
2017-11-04T16:11:48.667Z,0
2017-11-04T16:13:00.967Z,0
2017-11-04T16:14:13.264Z,0
2017-11-04T16:15:25.563Z,0
2017-11-04T16:16:38.180Z,0
2017-11-04T16:17:50.806Z,0
2017-11-04T16:19:03.400Z,0
2017-11-04T16:20:15.360Z,0
2017-11-04T16:21:27.660Z,0
2017-11-04T16:22:39.951Z,0
2017-11-04T16:23:52.580Z,0
2017-11-04T16:25:04.550Z,0
2017-11-04T16:26:16.826Z,0
2017-11-04T16:27:29.120Z,0
2017-11-04T16:28:41.766Z,0
2017-11-04T16:29:54.042Z,0
2017-11-04T16:31:05.699Z,0
2017-11-04T16:32:18.327Z,0
2017-11-04T16:33:30.620Z,0
2017-11-04T16:34:43.222Z,0
2017-11-04T16:35:55.835Z,0
2017-11-04T16:37:08.461Z,0
2017-11-04T16:38:20.760Z,0
2017-11-04T16:39:32.723Z,0
2017-11-04T16:40:45.003Z,0
2017-11-04T16:41:57.619Z,0
2017-11-04T16:43:09.564Z,0
2017-11-04T16:44:22.163Z,0
2017-11-04T16:45:34.455Z,0
2017-11-04T16:46:46.414Z,0
2017-11-04T16:47:59.020Z,0
2017-11-04T16:49:11.641Z,0
2017-11-04T16:50:24.233Z,0
2017-11-04T16:51:36.528Z,0
2017-11-04T16:52:49.152Z,0
2017-11-04T16:54:01.766Z,0
2017-11-04T16:55:14.044Z,0
2017-11-04T16:56:26.654Z,0
2017-11-04T16:57:39.274Z,0
2017-11-04T16:58:51.580Z,0
2017-11-04T17:00:04.173Z,0
2017-11-04T17:01:16.452Z,0
2017-11-04T17:02:28.396Z,0
2017-11-04T17:03:40.714Z,0
2017-11-04T17:04:53.336Z,0
2017-11-04T17:06:05.955Z,0
2017-11-04T17:07:18.582Z,0
2017-11-04T17:08:31.199Z,0
2017-11-04T17:09:43.816Z,0
2017-11-04T17:10:56.439Z,0
2017-11-04T17:12:08.428Z,0
2017-11-04T17:13:20.709Z,0